^^
Datos históricos de la estación: Murcia-Puente Tocinos
Diario Informe para Diciembre 13, 2019 Unidades:  Ambas    Ingés   Métrico
Diario Semanal Mensual Anual
  Máxima: Mínima: Promedio:
Temperatura: 69.6 °F /  20.9 °C 53.6 °F /  12 °C 61.3 °F /  16.3 °C
Punto de rocio: 50.4 °F /  10.2 °C 41.5 °F /  5.3 °C 45.7 °F /  7.6 °C
Humedad: 74% 39% 57%
Velocidad viento: 8.5mph /  13.7km/h - 4.3mph /  6.9km/h
Racha viento: 17.5mph /  28.2km/h - -
Viento- - SO
Presión: 30 in /  1015.3 hPa 29.8 in /  1010.4 hPa -
Precipitación: 0 in /  0.0 mm    
 
 
Tabla de datos para Diciembre 13, 2019
Hora Temperatura Punto de rocio Presión Viento Velocidad viento Racha viento Humedad Intensidad lluvia(por hora) Nubes
00:04 54 °F /  12.2 °C 41.5 °F /  5.3 °C 29.9in /  1012.4hPa OSO 3.9mph /  6.2km/h 7mph /  11.3km/h 62.8% 0in /  0.0mm
00:09 54.1 °F /  12.3 °C 41.5 °F /  5.3 °C 29.9in /  1012.5hPa Oeste 4.3mph /  6.9km/h 6mph /  9.7km/h 62.2% 0in /  0.0mm
00:14 54.1 °F /  12.3 °C 41.7 °F /  5.4 °C 29.9in /  1012.5hPa OSO 3.9mph /  6.3km/h 8.1mph /  13km/h 63% 0in /  0.0mm
00:19 54.3 °F /  12.4 °C 41.7 °F /  5.4 °C 29.9in /  1012.5hPa SO 3.6mph /  5.8km/h 10.4mph /  16.7km/h 62.5% 0in /  0.0mm
00:24 55 °F /  12.8 °C 41.9 °F /  5.5 °C 29.9in /  1012.5hPa SO 5.2mph /  8.4km/h 12.7mph /  20.4km/h 61.5% 0in /  0.0mm
00:29 55.8 °F /  13.2 °C 42.1 °F /  5.6 °C 29.9in /  1012.1hPa SO 6.4mph /  10.3km/h 13mph /  20.9km/h 60.2% 0in /  0.0mm
00:34 56.1 °F /  13.4 °C 42.1 °F /  5.6 °C 29.9in /  1012.1hPa SO 7mph /  11.3km/h 13mph /  20.9km/h 59.2% 0in /  0.0mm
00:39 56.5 °F /  13.6 °C 42.3 °F /  5.7 °C 29.9in /  1012.1hPa SO 7.4mph /  11.9km/h 13mph /  20.9km/h 59% 0in /  0.0mm
00:44 56.5 °F /  13.6 °C 42.3 °F /  5.7 °C 29.9in /  1012.0hPa OSO 7.5mph /  12.1km/h 13mph /  20.9km/h 59% 0in /  0.0mm
00:49 56.5 °F /  13.6 °C 42.4 °F /  5.8 °C 29.9in /  1012.0hPa OSO 7.6mph /  12.2km/h 13mph /  20.9km/h 59% 0in /  0.0mm
00:54 56.7 °F /  13.7 °C 42.4 °F /  5.8 °C 29.9in /  1012.0hPa SO 7.2mph /  11.6km/h 12mph /  19.3km/h 59% 0in /  0.0mm
00:59 56.8 °F /  13.8 °C 42.6 °F /  5.9 °C 29.9in /  1012.0hPa SO 6.9mph /  11.1km/h 10.4mph /  16.7km/h 59% 0in /  0.0mm
01:04 57 °F /  13.9 °C 42.8 °F /  6 °C 29.9in /  1012.0hPa SO 5.8mph /  9.4km/h 10mph /  16.1km/h 59% 0in /  0.0mm
01:09 57 °F /  13.9 °C 42.4 °F /  5.8 °C 29.9in /  1012.0hPa SO 5.2mph /  8.4km/h 9.7mph /  15.6km/h 58.1% 0in /  0.0mm
01:14 57.2 °F /  14 °C 42.4 °F /  5.8 °C 29.9in /  1011.9hPa OSO 5.2mph /  8.4km/h 10.4mph /  16.7km/h 58% 0in /  0.0mm
01:19 57.2 °F /  14 °C 42.8 °F /  6 °C 29.9in /  1011.9hPa OSO 5.2mph /  8.4km/h 10.4mph /  16.7km/h 58.7% 0in /  0.0mm
01:24 57 °F /  13.9 °C 42.8 °F /  6 °C 29.9in /  1012.1hPa Oeste 5.8mph /  9.3km/h 10.4mph /  16.7km/h 59% 0in /  0.0mm
01:29 56.7 °F /  13.7 °C 42.8 °F /  6 °C 29.9in /  1012.1hPa Oeste 6.2mph /  10km/h 10.4mph /  16.7km/h 59.4% 0in /  0.0mm
01:34 56.3 °F /  13.5 °C 42.6 °F /  5.9 °C 29.9in /  1012.1hPa Oeste 5.7mph /  9.2km/h 8.5mph /  13.7km/h 60% 0in /  0.0mm
01:39 55.9 °F /  13.3 °C 42.6 °F /  5.9 °C 29.9in /  1012.1hPa Oeste 5.4mph /  8.7km/h 9mph /  14.5km/h 60.7% 0in /  0.0mm
01:44 55.6 °F /  13.1 °C 42.3 °F /  5.7 °C 29.9in /  1012.0hPa Oeste 5mph /  8.1km/h 9.7mph /  15.6km/h 61.2% 0in /  0.0mm
01:49 55 °F /  12.8 °C 42.3 °F /  5.7 °C 29.9in /  1012.0hPa ONO 4.7mph /  7.6km/h 10mph /  16.1km/h 62% 0in /  0.0mm
01:54 54.9 °F /  12.7 °C 42.3 °F /  5.7 °C 29.9in /  1012.0hPa Oeste 4.5mph /  7.2km/h 8mph /  12.9km/h 62.4% 0in /  0.0mm
01:59 54.5 °F /  12.5 °C 42.3 °F /  5.7 °C 29.9in /  1012.0hPa SO 4.3mph /  6.9km/h 5.8mph /  9.3km/h 63% 0in /  0.0mm
02:04 54.1 °F /  12.3 °C 42.1 °F /  5.6 °C 29.9in /  1012.0hPa Sur 3.4mph /  5.5km/h 6mph /  9.7km/h 63.5% 0in /  0.0mm
02:09 54.1 °F /  12.3 °C 42.3 °F /  5.7 °C 29.9in /  1012.0hPa SE 2.9mph /  4.7km/h 5mph /  8km/h 64% 0in /  0.0mm
02:14 54.1 °F /  12.3 °C 42.4 °F /  5.8 °C 29.9in /  1011.3hPa SE 2.4mph /  3.8km/h 5mph /  8km/h 64.6% 0in /  0.0mm
02:19 54.1 °F /  12.3 °C 42.6 °F /  5.9 °C 29.9in /  1011.3hPa Sur 2mph /  3.2km/h 5mph /  8km/h 65% 0in /  0.0mm
02:24 54.1 °F /  12.3 °C 42.6 °F /  5.9 °C 29.9in /  1011.4hPa Oeste 2.2mph /  3.6km/h 4.7mph /  7.6km/h 65% 0in /  0.0mm
02:29 54.1 °F /  12.3 °C 42.6 °F /  5.9 °C 29.9in /  1011.4hPa Oeste 2.4mph /  3.9km/h 5.2mph /  8.4km/h 65% 0in /  0.0mm
02:34 54 °F /  12.2 °C 42.6 °F /  5.9 °C 29.9in /  1011.4hPa ONO 2.8mph /  4.5km/h 5.2mph /  8.4km/h 65% 0in /  0.0mm
02:39 54 °F /  12.2 °C 42.6 °F /  5.9 °C 29.9in /  1011.5hPa ONO 3.1mph /  5km/h 5.2mph /  8.4km/h 65.2% 0in /  0.0mm
02:44 54 °F /  12.2 °C 43 °F /  6.1 °C 29.9in /  1011.5hPa OSO 3mph /  4.8km/h 5.4mph /  8.7km/h 66% 0in /  0.0mm
02:49 54.1 °F /  12.3 °C 43 °F /  6.1 °C 29.9in /  1011.5hPa SSO 2.9mph /  4.7km/h 10.4mph /  16.7km/h 66% 0in /  0.0mm
02:54 54.9 °F /  12.7 °C 43.3 °F /  6.3 °C 29.9in /  1011.5hPa SSO 3.9mph /  6.3km/h 10mph /  16.1km/h 65.2% 0in /  0.0mm
02:59 55 °F /  12.8 °C 43.5 °F /  6.4 °C 29.9in /  1011.3hPa SO 4.7mph /  7.6km/h 7mph /  11.3km/h 64.9% 0in /  0.0mm
03:04 55 °F /  12.8 °C 43.2 °F /  6.2 °C 29.9in /  1011.3hPa OSO 2.9mph /  4.7km/h 4mph /  6.4km/h 64.2% 0in /  0.0mm
03:09 54.9 °F /  12.7 °C 43.2 °F /  6.2 °C 29.9in /  1011.3hPa OSO 1.8mph /  2.9km/h 2.3mph /  3.7km/h 65% 0in /  0.0mm
03:14 54.3 °F /  12.4 °C 43.2 °F /  6.2 °C 29.9in /  1011.3hPa OSO 0.7mph /  1.2km/h 3.1mph /  5km/h 65.9% 0in /  0.0mm
03:19 54.1 °F /  12.3 °C 43.2 °F /  6.2 °C 29.9in /  1011.3hPa Calm   3.5mph /  5.6km/h 66.5% 0in /  0.0mm
03:24 54 °F /  12.2 °C 43.2 °F /  6.2 °C 29.9in /  1011.4hPa Calm   3mph /  4.8km/h 67% 0in /  0.0mm
03:29 53.8 °F /  12.1 °C 43.2 °F /  6.2 °C 29.9in /  1011.4hPa Calm   3.6mph /  5.8km/h 67.3% 0in /  0.0mm
03:34 53.6 °F /  12 °C 43.3 °F /  6.3 °C 29.9in /  1011.4hPa NNE 1.1mph /  1.7km/h 4mph /  6.4km/h 68% 0in /  0.0mm
03:39 53.6 °F /  12 °C 43.3 °F /  6.3 °C 29.9in /  1011.4hPa NE 1.8mph /  2.9km/h 5.2mph /  8.4km/h 68.1% 0in /  0.0mm
03:44 54.1 °F /  12.3 °C 44.1 °F /  6.7 °C 29.9in /  1011.3hPa OSO 2.2mph /  3.5km/h 10.4mph /  16.7km/h 68.7% 0in /  0.0mm
03:49 55.9 °F /  13.3 °C 44.6 °F /  7 °C 29.9in /  1011.3hPa SO 2.4mph /  3.9km/h 10.7mph /  17.2km/h 65.8% 0in /  0.0mm
03:54 57.2 °F /  14 °C 44.8 °F /  7.1 °C 29.9in /  1011.3hPa SO 4.5mph /  7.2km/h 11mph /  17.7km/h 63.2% 0in /  0.0mm
03:59 57.9 °F /  14.4 °C 44.8 °F /  7.1 °C 29.9in /  1011.2hPa SO 5.9mph /  9.5km/h 11.5mph /  18.5km/h 61.5% 0in /  0.0mm
04:04 58.5 °F /  14.7 °C 44.8 °F /  7.1 °C 29.9in /  1011.2hPa SO 5.6mph /  9km/h 12mph /  19.3km/h 60.5% 0in /  0.0mm
04:09 58.6 °F /  14.8 °C 44.8 °F /  7.1 °C 29.9in /  1011.2hPa SO 5.4mph /  8.7km/h 10mph /  16.1km/h 60% 0in /  0.0mm
04:14 58.5 °F /  14.7 °C 44.6 °F /  7 °C 29.9in /  1011.1hPa Sur 4.6mph /  7.4km/h 8mph /  12.9km/h 60% 0in /  0.0mm
04:19 57.7 °F /  14.3 °C 44.4 °F /  6.9 °C 29.9in /  1011.1hPa SO 4mph /  6.5km/h 9.2mph /  14.8km/h 61.1% 0in /  0.0mm
04:24 57.6 °F /  14.2 °C 44.6 °F /  7 °C 29.9in /  1011.1hPa SSO 3.8mph /  6.1km/h 9.2mph /  14.8km/h 62% 0in /  0.0mm
04:29 57.7 °F /  14.3 °C 44.8 °F /  7.1 °C 29.8in /  1010.7hPa SSO 3.6mph /  5.8km/h 11.5mph /  18.5km/h 62% 0in /  0.0mm
04:34 57.7 °F /  14.3 °C 44.8 °F /  7.1 °C 29.8in /  1010.7hPa SO 4.9mph /  7.9km/h 12mph /  19.3km/h 62% 0in /  0.0mm
04:39 57.7 °F /  14.3 °C 44.8 °F /  7.1 °C 29.8in /  1010.7hPa SO 5.9mph /  9.5km/h 12mph /  19.3km/h 62% 0in /  0.0mm
04:44 57.7 °F /  14.3 °C 44.8 °F /  7.1 °C 29.8in /  1010.4hPa OSO 5.9mph /  9.5km/h 11.8mph /  19km/h 62% 0in /  0.0mm
04:49 57.9 °F /  14.4 °C 45 °F /  7.2 °C 29.8in /  1010.4hPa SO 5.9mph /  9.5km/h 12mph /  19.3km/h 62% 0in /  0.0mm
04:54 57.9 °F /  14.4 °C 45.1 °F /  7.3 °C 29.8in /  1010.5hPa OSO 5.9mph /  9.5km/h 10mph /  16.1km/h 62.2% 0in /  0.0mm
04:59 58.1 °F /  14.5 °C 45.1 °F /  7.3 °C 29.8in /  1010.5hPa ONO 5.9mph /  9.5km/h 10mph /  16.1km/h 62% 0in /  0.0mm
05:04 57.9 °F /  14.4 °C 45.1 °F /  7.3 °C 29.8in /  1010.5hPa NO 4.5mph /  7.2km/h 5mph /  8km/h 62.6% 0in /  0.0mm
05:09 57.7 °F /  14.3 °C 45.1 °F /  7.3 °C 29.8in /  1010.7hPa ONO 3.6mph /  5.8km/h 5mph /  8km/h 63% 0in /  0.0mm
05:14 57.6 °F /  14.2 °C 45.1 °F /  7.3 °C 29.8in /  1010.7hPa ONO 3.2mph /  5.1km/h 5mph /  8km/h 63.3% 0in /  0.0mm
05:19 57.6 °F /  14.2 °C 45.5 °F /  7.5 °C 29.8in /  1010.7hPa ONO 2.9mph /  4.7km/h 5mph /  8km/h 64% 0in /  0.0mm
05:24 57.4 °F /  14.1 °C 45.3 °F /  7.4 °C 29.8in /  1010.7hPa Oeste 2.2mph /  3.6km/h 4.6mph /  7.4km/h 64% 0in /  0.0mm
05:29 57.4 °F /  14.1 °C 45.3 °F /  7.4 °C 29.8in /  1010.5hPa SO 1.8mph /  2.9km/h 5mph /  8km/h 64.1% 0in /  0.0mm
05:34 57.4 °F /  14.1 °C 45.7 °F /  7.6 °C 29.8in /  1010.5hPa SSO 2.4mph /  3.9km/h 5.2mph /  8.4km/h 65% 0in /  0.0mm
05:39 57.6 °F /  14.2 °C 45.7 °F /  7.6 °C 29.8in /  1010.5hPa SO 2.9mph /  4.7km/h 6.2mph /  10km/h 64.5% 0in /  0.0mm
05:44 57.7 °F /  14.3 °C 45.7 °F /  7.6 °C 29.8in /  1010.5hPa SO 3mph /  4.8km/h 6mph /  9.7km/h 64% 0in /  0.0mm
05:49 57.7 °F /  14.3 °C 45.7 °F /  7.6 °C 29.8in /  1010.5hPa OSO 3.1mph /  5km/h 6mph /  9.7km/h 64% 0in /  0.0mm
05:54 57.4 °F /  14.1 °C 45.1 °F /  7.3 °C 29.8in /  1010.5hPa ESE 2.5mph /  4km/h 5.8mph /  9.3km/h 63.7% 0in /  0.0mm
05:59 56.7 °F /  13.7 °C 45.3 °F /  7.4 °C 29.8in /  1010.5hPa ESE 2mph /  3.2km/h 6mph /  9.7km/h 65.7% 0in /  0.0mm
06:04 56.5 °F /  13.6 °C 45.3 °F /  7.4 °C 29.8in /  1010.5hPa Este 2.2mph /  3.6km/h 5mph /  8km/h 66.2% 0in /  0.0mm
06:09 56.1 °F /  13.4 °C 45.1 °F /  7.3 °C 29.9in /  1010.8hPa Este 2.4mph /  3.9km/h 5mph /  8km/h 66.6% 0in /  0.0mm
06:14 56.1 °F /  13.4 °C 45.3 °F /  7.4 °C 29.9in /  1010.8hPa Este 2.4mph /  3.9km/h 5mph /  8km/h 67% 0in /  0.0mm
06:19 56.3 °F /  13.5 °C 45.7 °F /  7.6 °C 29.9in /  1010.8hPa Este 2.4mph /  3.9km/h 4.6mph /  7.4km/h 67.4% 0in /  0.0mm
06:24 56.7 °F /  13.7 °C 45.9 °F /  7.7 °C 29.9in /  1010.9hPa Este 2.1mph /  3.3km/h 5mph /  8km/h 67% 0in /  0.0mm
06:29 56.8 °F /  13.8 °C 45.9 °F /  7.7 °C 29.9in /  1010.9hPa Este 1.8mph /  2.9km/h 2mph /  3.2km/h 66.6% 0in /  0.0mm
06:34 57 °F /  13.9 °C 45.9 °F /  7.7 °C 29.9in /  1010.9hPa Este 0.7mph /  1.2km/h 3.1mph /  5km/h 66% 0in /  0.0mm
06:39 57.2 °F /  14 °C 45.9 °F /  7.7 °C 29.9in /  1010.9hPa Calm   3.5mph /  5.6km/h 65.8% 0in /  0.0mm
06:44 57.4 °F /  14.1 °C 45.7 °F /  7.6 °C 29.9in /  1010.9hPa Este 0.8mph /  1.3km/h 4.6mph /  7.4km/h 65% 0in /  0.0mm
06:49 57.7 °F /  14.3 °C 45.9 °F /  7.7 °C 29.9in /  1010.9hPa Sur 1.4mph /  2.2km/h 5mph /  8km/h 64.8% 0in /  0.0mm
06:54 57.7 °F /  14.3 °C 45.7 °F /  7.6 °C 29.9in /  1010.9hPa SSO 2.3mph /  3.7km/h 6.2mph /  10km/h 64.4% 0in /  0.0mm
06:59 57.7 °F /  14.3 °C 46 °F /  7.8 °C 29.9in /  1010.9hPa SSO 2.9mph /  4.7km/h 6mph /  9.7km/h 64.9% 0in /  0.0mm
07:04 57.9 °F /  14.4 °C 45.9 °F /  7.7 °C 29.9in /  1010.9hPa SSE 2.9mph /  4.7km/h 5.2mph /  8.4km/h 64.1% 0in /  0.0mm
07:09 58.1 °F /  14.5 °C 45.9 °F /  7.7 °C 29.9in /  1010.9hPa SE 2.9mph /  4.7km/h 5.9mph /  9.5km/h 63.7% 0in /  0.0mm
07:14 57.2 °F /  14 °C 45.5 °F /  7.5 °C 29.9in /  1010.9hPa ESE 3.7mph /  6km/h 8.1mph /  13km/h 65.1% 0in /  0.0mm
07:19 56.1 °F /  13.4 °C 45.3 °F /  7.4 °C 29.9in /  1010.9hPa ESE 4.3mph /  6.9km/h 8.1mph /  13km/h 67.4% 0in /  0.0mm
07:24 55.6 °F /  13.1 °C 45.7 °F /  7.6 °C 29.9in /  1010.9hPa ESE 5.4mph /  8.7km/h 8.7mph /  14km/h 69.1% 0in /  0.0mm
07:29 55.4 °F /  13 °C 45.9 °F /  7.7 °C 29.9in /  1010.9hPa ESE 6.2mph /  10km/h 9mph /  14.5km/h 70.3% 0in /  0.0mm
07:34 56.1 °F /  13.4 °C 46.4 °F /  8 °C 29.9in /  1010.9hPa ESE 5.1mph /  8.2km/h 6mph /  9.7km/h 70% 0in /  0.0mm
07:39 56.8 °F /  13.8 °C 46.4 °F /  8 °C 29.9in /  1010.9hPa SE 4.3mph /  6.9km/h 8.1mph /  13km/h 68.2% 0in /  0.0mm
07:44 57.4 °F /  14.1 °C 46.6 °F /  8.1 °C 29.8in /  1010.7hPa SSE 4.1mph /  6.6km/h 8.1mph /  13km/h 67.4% 0in /  0.0mm
07:49 57.4 °F /  14.1 °C 46.6 °F /  8.1 °C 29.8in /  1010.7hPa SSE 4mph /  6.5km/h 8mph /  12.9km/h 67% 0in /  0.0mm
07:54 57.4 °F /  14.1 °C 46.4 °F /  8 °C 29.8in /  1010.7hPa SSE 3.4mph /  5.4km/h 5mph /  8km/h 67.2% 0in /  0.0mm
07:59 57.2 °F /  14 °C 46.4 °F /  8 °C 29.8in /  1010.7hPa Sur 2.9mph /  4.7km/h 4mph /  6.4km/h 67.4% 0in /  0.0mm
08:04 57 °F /  13.9 °C 46.4 °F /  8 °C 29.8in /  1010.7hPa ONO 2.2mph /  3.5km/h 4mph /  6.4km/h 67.6% 0in /  0.0mm
08:09 56.8 °F /  13.8 °C 46.4 °F /  8 °C 29.9in /  1011.0hPa ONO 1.8mph /  2.9km/h 4.6mph /  7.4km/h 68% 0in /  0.0mm
08:14 56.7 °F /  13.7 °C 46.4 °F /  8 °C 29.9in /  1011.0hPa NO 1.9mph /  3.1km/h 5mph /  8km/h 68.4% 0in /  0.0mm
08:19 56.7 °F /  13.7 °C 46.4 °F /  8 °C 29.9in /  1011.0hPa NO 2mph /  3.2km/h 5mph /  8km/h 69% 0in /  0.0mm
08:24 56.7 °F /  13.7 °C 46.4 °F /  8 °C 29.9in /  1011.0hPa NO 2.5mph /  4.1km/h 5mph /  8km/h 68.6% 0in /  0.0mm
08:29 56.1 °F /  13.4 °C 45.9 °F /  7.7 °C 29.9in /  1010.9hPa ONO 2.9mph /  4.7km/h 5.8mph /  9.3km/h 68.2% 0in /  0.0mm
08:34 55.4 °F /  13 °C 45.5 °F /  7.5 °C 29.9in /  1010.9hPa Oeste 2.6mph /  4.2km/h 6mph /  9.7km/h 69.2% 0in /  0.0mm
08:39 54.9 °F /  12.7 °C 45.5 °F /  7.5 °C 29.9in /  1011.1hPa NO 2.4mph /  3.9km/h 5mph /  8km/h 70.6% 0in /  0.0mm
08:44 54.7 °F /  12.6 °C 45.5 °F /  7.5 °C 29.9in /  1011.1hPa NO 1.8mph /  2.9km/h 5.4mph /  8.7km/h 71.3% 0in /  0.0mm
08:49 54.3 °F /  12.4 °C 45.5 °F /  7.5 °C 29.9in /  1011.1hPa Oeste 1.4mph /  2.2km/h 6mph /  9.7km/h 72% 0in /  0.0mm
08:54 54.1 °F /  12.3 °C 45.5 °F /  7.5 °C 29.9in /  1011.2hPa OSO 1.7mph /  2.8km/h 5mph /  8km/h 72.5% 0in /  0.0mm
08:59 54.1 °F /  12.3 °C 45.7 °F /  7.6 °C 29.9in /  1011.2hPa OSO 2mph /  3.2km/h 3.6mph /  5.8km/h 73% 0in /  0.0mm
09:04 54.3 °F /  12.4 °C 45.9 °F /  7.7 °C 29.9in /  1011.2hPa ONO 1.6mph /  2.6km/h 4mph /  6.4km/h 73% 0in /  0.0mm
09:09 54.3 °F /  12.4 °C 45.9 °F /  7.7 °C 29.9in /  1011.4hPa ONO 1.4mph /  2.2km/h 3.5mph /  5.6km/h 73% 0in /  0.0mm
09:14 54.3 °F /  12.4 °C 45.9 °F /  7.7 °C 29.9in /  1011.4hPa SSO 1.7mph /  2.8km/h 5.2mph /  8.4km/h 73% 0in /  0.0mm
09:19 54.3 °F /  12.4 °C 45.9 °F /  7.7 °C 29.9in /  1011.4hPa ESE 2mph /  3.2km/h 5.2mph /  8.4km/h 73% 0in /  0.0mm
09:24 54.3 °F /  12.4 °C 46 °F /  7.8 °C 29.9in /  1011.4hPa ESE 2.9mph /  4.7km/h 5.9mph /  9.5km/h 73.7% 0in /  0.0mm
09:29 54.7 °F /  12.6 °C 46.6 °F /  8.1 °C 29.9in /  1011.4hPa ESE 3.6mph /  5.8km/h 6mph /  9.7km/h 74% 0in /  0.0mm
09:34 55 °F /  12.8 °C 46.8 °F /  8.2 °C 29.9in /  1011.4hPa ESE 3.9mph /  6.2km/h 6mph /  9.7km/h 73.5% 0in /  0.0mm
09:39 55.6 °F /  13.1 °C 47.1 °F /  8.4 °C 29.9in /  1011.6hPa ESE 4mph /  6.5km/h 6mph /  9.7km/h 73% 0in /  0.0mm
09:44 55.9 °F /  13.3 °C 47.1 °F /  8.4 °C 29.9in /  1011.6hPa ESE 3.5mph /  5.6km/h 5.8mph /  9.3km/h 72.1% 0in /  0.0mm
09:49 56.3 °F /  13.5 °C 47.5 °F /  8.6 °C 29.9in /  1011.6hPa ESE 3.1mph /  5km/h 6mph /  9.7km/h 71.8% 0in /  0.0mm
09:54 56.8 °F /  13.8 °C 47.7 °F /  8.7 °C 29.9in /  1011.7hPa SE 3mph /  4.8km/h 5.8mph /  9.3km/h 70.9% 0in /  0.0mm
09:59 57.7 °F /  14.3 °C 47.7 °F /  8.7 °C 29.9in /  1011.7hPa ESE 2.9mph /  4.7km/h 6mph /  9.7km/h 69.4% 0in /  0.0mm
10:04 58.3 °F /  14.6 °C 47.8 °F /  8.8 °C 29.9in /  1011.7hPa ESE 3mph /  4.8km/h 6mph /  9.7km/h 68.4% 0in /  0.0mm
10:09 58.5 °F /  14.7 °C 47.8 °F /  8.8 °C 29.9in /  1011.9hPa SE 3.1mph /  5km/h 5mph /  8km/h 68% 0in /  0.0mm
10:14 58.5 °F /  14.7 °C 47.8 °F /  8.8 °C 29.9in /  1011.9hPa SSE 3.1mph /  5km/h 5.8mph /  9.3km/h 68% 0in /  0.0mm
10:19 58.6 °F /  14.8 °C 48 °F /  8.9 °C 29.9in /  1011.9hPa SSE 3.1mph /  5km/h 6mph /  9.7km/h 68% 0in /  0.0mm
10:24 58.8 °F /  14.9 °C 48.2 °F /  9 °C 29.9in /  1012.1hPa Sur 3.6mph /  5.8km/h 6mph /  9.7km/h 67.7% 0in /  0.0mm
10:29 59.2 °F /  15.1 °C 48.2 °F /  9 °C 29.9in /  1012.1hPa Sur 4mph /  6.5km/h 6mph /  9.7km/h 67.3% 0in /  0.0mm
10:34 59.5 °F /  15.3 °C 48.6 °F /  9.2 °C 29.9in /  1012.1hPa Sur 3.5mph /  5.6km/h 5mph /  8km/h 67% 0in /  0.0mm
10:39 59.7 °F /  15.4 °C 48.6 °F /  9.2 °C 29.9in /  1012.1hPa Sur 3.1mph /  5km/h 5mph /  8km/h 66.7% 0in /  0.0mm
10:44 60.1 °F /  15.6 °C 48.7 °F /  9.3 °C 29.9in /  1012.1hPa Sur 2.7mph /  4.3km/h 5mph /  8km/h 66.2% 0in /  0.0mm
10:49 60.3 °F /  15.7 °C 49.3 °F /  9.6 °C 29.9in /  1012.1hPa SSO 2.4mph /  3.9km/h 4.6mph /  7.4km/h 67% 0in /  0.0mm
10:54 60.4 °F /  15.8 °C 49.5 °F /  9.7 °C 29.9in /  1012.3hPa North 2.2mph /  3.5km/h 5mph /  8km/h 67% 0in /  0.0mm
10:59 60.6 °F /  15.9 °C 49.6 °F /  9.8 °C 29.9in /  1012.3hPa North 2mph /  3.2km/h 3mph /  4.8km/h 67% 0in /  0.0mm
11:04 61 °F /  16.1 °C 49.6 °F /  9.8 °C 29.9in /  1012.3hPa NO 1.6mph /  2.6km/h 4.7mph /  7.6km/h 66.5% 0in /  0.0mm
11:09 61.2 °F /  16.2 °C 50.2 °F /  10.1 °C 29.9in /  1012.4hPa NO 1.4mph /  2.2km/h 5mph /  8km/h 67.3% 0in /  0.0mm
11:14 61.2 °F /  16.2 °C 50.4 °F /  10.2 °C 29.9in /  1012.4hPa Oeste 2.2mph /  3.6km/h 5.2mph /  8.4km/h 67.7% 0in /  0.0mm
11:19 61.2 °F /  16.2 °C 50.2 °F /  10.1 °C 29.9in /  1012.4hPa Oeste 2.9mph /  4.7km/h 5mph /  8km/h 67% 0in /  0.0mm
11:24 61.3 °F /  16.3 °C 50.4 °F /  10.2 °C 29.9in /  1012.4hPa ONO 2.6mph /  4.2km/h 5mph /  8km/h 67% 0in /  0.0mm
11:29 61.3 °F /  16.3 °C 50.4 °F /  10.2 °C 29.9in /  1012.4hPa ONO 2.4mph /  3.9km/h 5mph /  8km/h 67% 0in /  0.0mm
11:34 61.3 °F /  16.3 °C 50.4 °F /  10.2 °C 29.9in /  1012.4hPa ONO 1.8mph /  2.9km/h 4.6mph /  7.4km/h 67% 0in /  0.0mm
11:39 61.3 °F /  16.3 °C 50 °F /  10 °C 29.9in /  1012.4hPa Oeste 1.4mph /  2.2km/h 5mph /  8km/h 66% 0in /  0.0mm
11:44 61.5 °F /  16.4 °C 49.8 °F /  9.9 °C 29.9in /  1012.4hPa Oeste 2mph /  3.2km/h 5mph /  8km/h 65.3% 0in /  0.0mm
11:49 61.9 °F /  16.6 °C 50 °F /  10 °C 29.9in /  1012.4hPa Oeste 2.4mph /  3.9km/h 4mph /  6.4km/h 65% 0in /  0.0mm
11:54 62.2 °F /  16.8 °C 50.2 °F /  10.1 °C 29.9in /  1012.5hPa Oeste 2.2mph /  3.5km/h 3.6mph /  5.8km/h 64.9% 0in /  0.0mm
11:59 62.4 °F /  16.9 °C 49.8 °F /  9.9 °C 29.9in /  1012.5hPa Oeste 2mph /  3.2km/h 4.6mph /  7.4km/h 63.6% 0in /  0.0mm
12:04 62.8 °F /  17.1 °C 49.6 °F /  9.8 °C 29.9in /  1012.5hPa OSO 1.9mph /  3km/h 5mph /  8km/h 62.4% 0in /  0.0mm
12:09 63.1 °F /  17.3 °C 49.8 °F /  9.9 °C 29.9in /  1012.5hPa SSO 1.8mph /  2.9km/h 5mph /  8km/h 61.8% 0in /  0.0mm
12:14 63.5 °F /  17.5 °C 49.1 °F /  9.5 °C 29.9in /  1012.4hPa SSO 2.4mph /  3.9km/h 5.2mph /  8.4km/h 59.7% 0in /  0.0mm
12:19 63.9 °F /  17.7 °C 48.9 °F /  9.4 °C 29.9in /  1012.4hPa SSO 2.9mph /  4.7km/h 5.2mph /  8.4km/h 58.2% 0in /  0.0mm
12:24 64 °F /  17.8 °C 49.3 °F /  9.6 °C 29.9in /  1012.4hPa Sur 3mph /  4.8km/h 5.2mph /  8.4km/h 58.5% 0in /  0.0mm
12:29 64.4 °F /  18 °C 49.3 °F /  9.6 °C 29.9in /  1012.2hPa Sur 3.1mph /  5km/h 5mph /  8km/h 58% 0in /  0.0mm
12:34 64.8 °F /  18.2 °C 49.5 °F /  9.7 °C 29.9in /  1012.2hPa SSE 3.1mph /  5km/h 5.8mph /  9.3km/h 57.7% 0in /  0.0mm
12:39 64.9 °F /  18.3 °C 48.7 °F /  9.3 °C 29.9in /  1012.4hPa SE 3.1mph /  5km/h 9.7mph /  15.6km/h 55.7% 0in /  0.0mm
12:44 65.5 °F /  18.6 °C 48.4 °F /  9.1 °C 29.9in /  1012.4hPa Sur 3.8mph /  6.1km/h 10mph /  16.1km/h 54.1% 0in /  0.0mm
12:49 66 °F /  18.9 °C 47.3 °F /  8.5 °C 29.9in /  1012.4hPa SSO 4.3mph /  6.9km/h 9.2mph /  14.8km/h 50.7% 0in /  0.0mm
12:54 66.7 °F /  19.3 °C 47.1 °F /  8.4 °C 29.9in /  1012.4hPa SO 4.5mph /  7.3km/h 9.2mph /  14.8km/h 49.2% 0in /  0.0mm
12:59 67.1 °F /  19.5 °C 47.7 °F /  8.7 °C 29.9in /  1012.1hPa SSE 4.7mph /  7.6km/h 9mph /  14.5km/h 49.6% 0in /  0.0mm
13:04 67.5 °F /  19.7 °C 47.8 °F /  8.8 °C 29.9in /  1012.1hPa ENE 4.7mph /  7.6km/h 9mph /  14.5km/h 49.5% 0in /  0.0mm
13:09 67.6 °F /  19.8 °C 47.8 °F /  8.8 °C 29.9in /  1012.1hPa North 4.7mph /  7.6km/h 7mph /  11.3km/h 49% 0in /  0.0mm
13:14 68 °F /  20 °C 47.8 °F /  8.8 °C 29.9in /  1012.1hPa Oeste 3.4mph /  5.4km/h 6.9mph /  11.1km/h 48.6% 0in /  0.0mm
13:19 68.4 °F /  20.2 °C 47.8 °F /  8.8 °C 29.9in /  1012.1hPa Este 2.4mph /  3.9km/h 7mph /  11.3km/h 48% 0in /  0.0mm
13:24 68.5 °F /  20.3 °C 47.8 °F /  8.8 °C 29.9in /  1012.1hPa ONO 2.4mph /  3.9km/h 6mph /  9.7km/h 47.7% 0in /  0.0mm
13:29 68.7 °F /  20.4 °C 47.7 °F /  8.7 °C 29.9in /  1012.1hPa OSO 2.4mph /  3.9km/h 9.7mph /  15.6km/h 46.8% 0in /  0.0mm
13:34 68.9 °F /  20.5 °C 47.1 °F /  8.4 °C 29.9in /  1012.1hPa ONO 2.7mph /  4.3km/h 10mph /  16.1km/h 45.6% 0in /  0.0mm
13:39 68.9 °F /  20.5 °C 47.3 °F /  8.5 °C 29.9in /  1012.1hPa SO 2.9mph /  4.7km/h 15mph /  24.1km/h 46.1% 0in /  0.0mm
13:44 68.5 °F /  20.3 °C 48 °F /  8.9 °C 29.9in /  1011.9hPa OSO 4.7mph /  7.5km/h 15mph /  24.1km/h 47.9% 0in /  0.0mm
13:49 68.5 °F /  20.3 °C 46.8 °F /  8.2 °C 29.9in /  1011.9hPa OSO 5.9mph /  9.5km/h 14.7mph /  23.7km/h 45.6% 0in /  0.0mm
13:54 68.7 °F /  20.4 °C 45.7 °F /  7.6 °C 29.9in /  1012.0hPa Oeste 5.6mph /  9km/h 15mph /  24.1km/h 43.6% 0in /  0.0mm
13:59 68.9 °F /  20.5 °C 45.5 °F /  7.5 °C 29.9in /  1012.0hPa OSO 5.4mph /  8.7km/h 15mph /  24.1km/h 43.1% 0in /  0.0mm
14:04 69.1 °F /  20.6 °C 45.7 °F /  7.6 °C 29.9in /  1012.0hPa Oeste 5.9mph /  9.5km/h 14mph /  22.5km/h 43.1% 0in /  0.0mm
14:09 69.1 °F /  20.6 °C 45.7 °F /  7.6 °C 29.9in /  1012.0hPa OSO 6.2mph /  10km/h 12.7mph /  20.4km/h 43% 0in /  0.0mm
14:14 69.3 °F /  20.7 °C 45.5 °F /  7.5 °C 29.9in /  1011.8hPa SO 5.3mph /  8.6km/h 13mph /  20.9km/h 42.7% 0in /  0.0mm
14:19 69.3 °F /  20.7 °C 44.8 °F /  7.1 °C 29.9in /  1011.8hPa OSO 4.7mph /  7.6km/h 11.8mph /  19km/h 41.3% 0in /  0.0mm
14:24 69.4 °F /  20.8 °C 44.8 °F /  7.1 °C 29.9in /  1011.8hPa Oeste 5.6mph /  9km/h 12mph /  19.3km/h 41% 0in /  0.0mm
14:29 69.6 °F /  20.9 °C 44.4 °F /  6.9 °C 29.9in /  1011.6hPa Oeste 6.2mph /  10km/h 17.5mph /  28.2km/h 40.3% 0in /  0.0mm
14:34 69.6 °F /  20.9 °C 43.5 °F /  6.4 °C 29.9in /  1011.6hPa Oeste 7mph /  11.3km/h 17.5mph /  28.2km/h 39% 0in /  0.0mm
14:39 69.6 °F /  20.9 °C 43.7 °F /  6.5 °C 29.9in /  1011.6hPa Oeste 7.6mph /  12.2km/h 17mph /  27.4km/h 39.3% 0in /  0.0mm
14:44 69.6 °F /  20.9 °C 44.2 °F /  6.8 °C 29.9in /  1011.6hPa ONO 7.5mph /  12km/h 14mph /  22.5km/h 40.1% 0in /  0.0mm
14:49 69.6 °F /  20.9 °C 44.4 °F /  6.9 °C 29.9in /  1011.6hPa Oeste 7.4mph /  11.9km/h 11.5mph /  18.5km/h 40.2% 0in /  0.0mm
14:54 69.6 °F /  20.9 °C 44.4 °F /  6.9 °C 29.9in /  1011.7hPa Oeste 6.2mph /  10km/h 12mph /  19.3km/h 40.3% 0in /  0.0mm
14:59 69.4 °F /  20.8 °C 44.2 °F /  6.8 °C 29.9in /  1011.7hPa Oeste 5.4mph /  8.7km/h 16.1mph /  25.9km/h 40.2% 0in /  0.0mm
15:04 69.4 °F /  20.8 °C 44.6 °F /  7 °C 29.9in /  1011.7hPa Oeste 6mph /  9.7km/h 16mph /  25.7km/h 41% 0in /  0.0mm
15:09 69.3 °F /  20.7 °C 44.6 °F /  7 °C 29.9in /  1011.8hPa ONO 6.4mph /  10.3km/h 9.7mph /  15.6km/h 41% 0in /  0.0mm
15:14 69.3 °F /  20.7 °C 44.4 °F /  6.9 °C 29.9in /  1011.8hPa ONO 5.4mph /  8.7km/h 11.5mph /  18.5km/h 41% 0in /  0.0mm
15:19 69.3 °F /  20.7 °C 44.4 °F /  6.9 °C 29.9in /  1011.8hPa SO 4.7mph /  7.6km/h 12mph /  19.3km/h 41% 0in /  0.0mm
15:24 69.3 °F /  20.7 °C 44.6 °F /  7 °C 29.9in /  1011.9hPa Oeste 5.1mph /  8.2km/h 11.5mph /  18.5km/h 41.1% 0in /  0.0mm
15:29 69.3 °F /  20.7 °C 44.6 °F /  7 °C 29.9in /  1011.9hPa Oeste 5.4mph /  8.7km/h 12mph /  19.3km/h 41.1% 0in /  0.0mm
15:34 69.3 °F /  20.7 °C 44.4 °F /  6.9 °C 29.9in /  1011.9hPa ONO 4mph /  6.5km/h 7mph /  11.3km/h 40.9% 0in /  0.0mm
15:39 69.3 °F /  20.7 °C 44.4 °F /  6.9 °C 29.9in /  1012.2hPa OSO 3.1mph /  5km/h 10.7mph /  17.2km/h 40.9% 0in /  0.0mm
15:44 69.3 °F /  20.7 °C 44.6 °F /  7 °C 29.9in /  1012.2hPa SSO 3.8mph /  6.1km/h 11mph /  17.7km/h 41% 0in /  0.0mm
15:49 69.3 °F /  20.7 °C 44.4 °F /  6.9 °C 29.9in /  1012.2hPa Oeste 4.3mph /  6.9km/h 7mph /  11.3km/h 41% 0in /  0.0mm
15:54 69.3 °F /  20.7 °C 44.6 °F /  7 °C 29.9in /  1012.2hPa Oeste 3.2mph /  5.2km/h 5.9mph /  9.5km/h 41.1% 0in /  0.0mm
15:59 69.3 °F /  20.7 °C 45.1 °F /  7.3 °C 29.9in /  1012.2hPa Oeste 2.4mph /  3.9km/h 6mph /  9.7km/h 42% 0in /  0.0mm
16:04 69.3 °F /  20.7 °C 44.8 °F /  7.1 °C 29.9in /  1012.2hPa SO 2.7mph /  4.3km/h 5.9mph /  9.5km/h 41.5% 0in /  0.0mm
16:09 69.1 °F /  20.6 °C 45.1 °F /  7.3 °C 29.9in /  1012.4hPa ESE 2.9mph /  4.7km/h 6.2mph /  10km/h 42% 0in /  0.0mm
16:14 69.1 °F /  20.6 °C 45.5 °F /  7.5 °C 29.9in /  1012.4hPa SE 3mph /  4.8km/h 6mph /  9.7km/h 42.7% 0in /  0.0mm
16:19 68.9 °F /  20.5 °C 45.5 °F /  7.5 °C 29.9in /  1012.4hPa SE 3.1mph /  5km/h 6mph /  9.7km/h 43% 0in /  0.0mm
16:24 68.9 °F /  20.5 °C 45.7 °F /  7.6 °C 29.9in /  1012.5hPa SSE 2.3mph /  3.7km/h 5.9mph /  9.5km/h 43.4% 0in /  0.0mm
16:29 68.7 °F /  20.4 °C 45.9 °F /  7.7 °C 29.9in /  1012.5hPa SSO 1.8mph /  2.9km/h 6mph /  9.7km/h 44% 0in /  0.0mm
16:34 68.7 °F /  20.4 °C 45.9 °F /  7.7 °C 29.9in /  1012.5hPa Sur 2.9mph /  4.6km/h 6.4mph /  10.3km/h 44% 0in /  0.0mm
16:39 68.7 °F /  20.4 °C 45.5 °F /  7.5 °C 29.9in /  1012.6hPa SSO 3.6mph /  5.8km/h 7.4mph /  11.9km/h 43.4% 0in /  0.0mm
16:44 68.7 °F /  20.4 °C 45.5 °F /  7.5 °C 29.9in /  1012.6hPa SSO 4mph /  6.4km/h 7mph /  11.3km/h 43.3% 0in /  0.0mm
16:49 68.7 °F /  20.4 °C 45.5 °F /  7.5 °C 29.9in /  1012.6hPa SSO 4.3mph /  6.9km/h 8.5mph /  13.7km/h 43.4% 0in /  0.0mm
16:54 68.5 °F /  20.3 °C 45.7 °F /  7.6 °C 29.9in /  1012.9hPa SO 4.8mph /  7.8km/h 9.2mph /  14.8km/h 43.7% 0in /  0.0mm
16:59 68.5 °F /  20.3 °C 45.5 °F /  7.5 °C 29.9in /  1012.9hPa SO 5.2mph /  8.4km/h 13mph /  20.9km/h 43.5% 0in /  0.0mm
17:04 68.5 °F /  20.3 °C 45.1 °F /  7.3 °C 29.9in /  1012.9hPa SO 5.8mph /  9.3km/h 13mph /  20.9km/h 43% 0in /  0.0mm
17:09 68.4 °F /  20.2 °C 45.5 °F /  7.5 °C 29.9in /  1013.2hPa OSO 6.2mph /  10km/h 11.5mph /  18.5km/h 43.8% 0in /  0.0mm
17:14 68.4 °F /  20.2 °C 45.5 °F /  7.5 °C 29.9in /  1013.2hPa OSO 6.3mph /  10.2km/h 12mph /  19.3km/h 44% 0in /  0.0mm
17:19 68.2 °F /  20.1 °C 45.3 °F /  7.4 °C 29.9in /  1013.2hPa OSO 6.4mph /  10.3km/h 12mph /  19.3km/h 44% 0in /  0.0mm
17:24 67.8 °F /  19.9 °C 45.1 °F /  7.3 °C 29.9in /  1013.3hPa OSO 7mph /  11.3km/h 13mph /  20.9km/h 44.1% 0in /  0.0mm
17:29 67.8 °F /  19.9 °C 45.3 °F /  7.4 °C 29.9in /  1013.3hPa OSO 7.4mph /  11.9km/h 13.7mph /  22km/h 44.5% 0in /  0.0mm
17:34 67.8 °F /  19.9 °C 45.5 °F /  7.5 °C 29.9in /  1013.3hPa OSO 7.5mph /  12.1km/h 14mph /  22.5km/h 44.6% 0in /  0.0mm
17:39 67.6 °F /  19.8 °C 45.5 °F /  7.5 °C 29.9in /  1013.7hPa OSO 7.6mph /  12.2km/h 14mph /  22.5km/h 45% 0in /  0.0mm
17:44 67.6 °F /  19.8 °C 45.5 °F /  7.5 °C 29.9in /  1013.7hPa OSO 7mph /  11.2km/h 13mph /  20.9km/h 45% 0in /  0.0mm
17:49 67.5 °F /  19.7 °C 45.3 °F /  7.4 °C 29.9in /  1013.7hPa OSO 6.4mph /  10.3km/h 13mph /  20.9km/h 45% 0in /  0.0mm
17:54 67.3 °F /  19.6 °C 45.7 °F /  7.6 °C 29.9in /  1013.9hPa SO 6.4mph /  10.3km/h 11mph /  17.7km/h 45.9% 0in /  0.0mm
17:59 66.9 °F /  19.4 °C 45.5 °F /  7.5 °C 29.9in /  1013.9hPa SO 6.4mph /  10.3km/h 9.2mph /  14.8km/h 46% 0in /  0.0mm
18:04 66.7 °F /  19.3 °C 45.3 °F /  7.4 °C 29.9in /  1013.9hPa SO 5.8mph /  9.3km/h 10.4mph /  16.7km/h 46% 0in /  0.0mm
18:09 66.7 °F /  19.3 °C 45.9 °F /  7.7 °C 29.9in /  1014.0hPa OSO 5.4mph /  8.7km/h 10mph /  16.1km/h 46.9% 0in /  0.0mm
18:14 66.6 °F /  19.2 °C 45.7 °F /  7.6 °C 29.9in /  1014.0hPa OSO 4.6mph /  7.4km/h 9.2mph /  14.8km/h 47% 0in /  0.0mm
18:19 66.4 °F /  19.1 °C 45.7 °F /  7.6 °C 29.9in /  1014.0hPa SO 4mph /  6.5km/h 9mph /  14.5km/h 47.5% 0in /  0.0mm
18:24 66.2 °F /  19 °C 45.9 °F /  7.7 °C 30in /  1014.2hPa SSO 3.8mph /  6.1km/h 6.9mph /  11.1km/h 48% 0in /  0.0mm
18:29 66.2 °F /  19 °C 45.9 °F /  7.7 °C 30in /  1014.2hPa SSO 3.6mph /  5.8km/h 7mph /  11.3km/h 48% 0in /  0.0mm
18:34 66.2 °F /  19 °C 45.9 °F /  7.7 °C 30in /  1014.2hPa SSO 4mph /  6.4km/h 10.4mph /  16.7km/h 48% 0in /  0.0mm
18:39 66.4 °F /  19.1 °C 46 °F /  7.8 °C 30in /  1014.4hPa OSO 4.3mph /  6.9km/h 12.5mph /  20.1km/h 48% 0in /  0.0mm
18:44 66.6 °F /  19.2 °C 45.9 °F /  7.7 °C 30in /  1014.4hPa Oeste 5.8mph /  9.4km/h 17.5mph /  28.2km/h 47.1% 0in /  0.0mm
18:49 66.6 °F /  19.2 °C 45.7 °F /  7.6 °C 30in /  1014.4hPa Oeste 6.9mph /  11.1km/h 17mph /  27.4km/h 47% 0in /  0.0mm
18:54 66.6 °F /  19.2 °C 45.7 °F /  7.6 °C 30in /  1014.4hPa Oeste 6.6mph /  10.6km/h 16.1mph /  25.9km/h 47% 0in /  0.0mm
18:59 66.7 °F /  19.3 °C 45.9 °F /  7.7 °C 30in /  1014.4hPa Oeste 6.4mph /  10.3km/h 16mph /  25.7km/h 47% 0in /  0.0mm
19:04 66.6 °F /  19.2 °C 46 °F /  7.8 °C 30in /  1014.4hPa Oeste 6.4mph /  10.3km/h 14mph /  22.5km/h 47.9% 0in /  0.0mm
19:09 66.4 °F /  19.1 °C 46 °F /  7.8 °C 30in /  1014.5hPa Oeste 6.4mph /  10.3km/h 12.5mph /  20.1km/h 48% 0in /  0.0mm
19:14 66.4 °F /  19.1 °C 46 °F /  7.8 °C 30in /  1014.5hPa Oeste 7mph /  11.3km/h 13.8mph /  22.2km/h 47.9% 0in /  0.0mm
19:19 66.6 °F /  19.2 °C 45.7 °F /  7.6 °C 30in /  1014.5hPa Oeste 7.4mph /  11.9km/h 14mph /  22.5km/h 47.2% 0in /  0.0mm
19:24 66.6 °F /  19.2 °C 45.7 °F /  7.6 °C 30in /  1014.6hPa OSO 7.1mph /  11.4km/h 15.2mph /  24.5km/h 47% 0in /  0.0mm
19:29 66.6 °F /  19.2 °C 45.7 °F /  7.6 °C 30in /  1014.6hPa SO 6.9mph /  11.1km/h 15mph /  24.1km/h 47% 0in /  0.0mm
19:34 66.4 °F /  19.1 °C 46 °F /  7.8 °C 30in /  1014.6hPa ESE 6.3mph /  10.2km/h 14mph /  22.5km/h 48.1% 0in /  0.0mm
19:39 65.7 °F /  18.7 °C 46.2 °F /  7.9 °C 30in /  1014.7hPa SE 5.9mph /  9.5km/h 8.5mph /  13.7km/h 49.5% 0in /  0.0mm
19:44 64.8 °F /  18.2 °C 46.2 °F /  7.9 °C 30in /  1014.7hPa SE 4.5mph /  7.3km/h 10.7mph /  17.2km/h 51.2% 0in /  0.0mm
19:49 63.9 °F /  17.7 °C 46.4 °F /  8 °C 30in /  1014.7hPa SSE 3.6mph /  5.8km/h 11.8mph /  19km/h 52.9% 0in /  0.0mm
19:54 63.5 °F /  17.5 °C 46.6 °F /  8.1 °C 30in /  1014.7hPa SSE 5.1mph /  8.2km/h 12mph /  19.3km/h 54% 0in /  0.0mm
19:59 63.3 °F /  17.4 °C 46.4 °F /  8 °C 30in /  1014.7hPa Sur 6.2mph /  10km/h 9.2mph /  14.8km/h 54% 0in /  0.0mm
20:04 63.3 °F /  17.4 °C 46.4 °F /  8 °C 30in /  1014.7hPa Sur 6.2mph /  10km/h 9.7mph /  15.6km/h 54% 0in /  0.0mm
20:09 63.5 °F /  17.5 °C 46.6 °F /  8.1 °C 30in /  1014.9hPa Sur 6.2mph /  10km/h 10mph /  16.1km/h 54% 0in /  0.0mm
20:14 63.7 °F /  17.6 °C 46.4 °F /  8 °C 30in /  1014.9hPa SSE 6mph /  9.7km/h 12.3mph /  19.8km/h 53.2% 0in /  0.0mm
20:19 64 °F /  17.8 °C 46.4 °F /  8 °C 30in /  1014.9hPa SSE 5.9mph /  9.5km/h 17.3mph /  27.8km/h 52.4% 0in /  0.0mm
20:24 64.8 °F /  18.2 °C 46.2 °F /  7.9 °C 30in /  1015.1hPa Sur 7.4mph /  11.9km/h 17mph /  27.4km/h 50.8% 0in /  0.0mm
20:29 65.3 °F /  18.5 °C 46.2 °F /  7.9 °C 30in /  1015.1hPa SSO 8.5mph /  13.7km/h 14mph /  22.5km/h 50% 0in /  0.0mm
20:34 64.9 °F /  18.3 °C 46.2 °F /  7.9 °C 30in /  1015.1hPa SSO 8.3mph /  13.3km/h 13mph /  20.9km/h 50.7% 0in /  0.0mm
20:39 64.6 °F /  18.1 °C 46 °F /  7.8 °C 30in /  1015.3hPa SO 8.1mph /  13km/h 13mph /  20.9km/h 51% 0in /  0.0mm
20:44 64.6 °F /  18.1 °C 46 °F /  7.8 °C 30in /  1015.3hPa OSO 8.1mph /  13km/h 13mph /  20.9km/h 51% 0in /  0.0mm
20:49 64.6 °F /  18.1 °C 46 °F /  7.8 °C 30in /  1015.3hPa OSO 8.1mph /  13km/h 12.7mph /  20.4km/h 51% 0in /  0.0mm
20:54 64.6 °F /  18.1 °C 46 °F /  7.8 °C 30in /  1015.3hPa OSO 7.8mph /  12.6km/h 13mph /  20.9km/h 51% 0in /  0.0mm
20:59 64.4 °F /  18 °C 45.9 °F /  7.7 °C 30in /  1015.2hPa OSO 7.6mph /  12.2km/h 13mph /  20.9km/h 51% 0in /  0.0mm
21:04 64.2 °F /  17.9 °C 45.9 °F /  7.7 °C 30in /  1015.2hPa OSO 7.1mph /  11.5km/h 13mph /  20.9km/h 51.5% 0in /  0.0mm
21:09 63.9 °F /  17.7 °C 45.9 °F /  7.7 °C 30in /  1015.3hPa Oeste 6.9mph /  11.1km/h 9mph /  14.5km/h 52% 0in /  0.0mm
21:14 63.5 °F /  17.5 °C 46 °F /  7.8 °C 30in /  1015.3hPa Oeste 6mph /  9.7km/h 8.1mph /  13km/h 52.9% 0in /  0.0mm
21:19 63.1 °F /  17.3 °C 45.7 °F /  7.6 °C 30in /  1015.3hPa Oeste 5.4mph /  8.7km/h 8.1mph /  13km/h 53% 0in /  0.0mm
21:24 63 °F /  17.2 °C 46 °F /  7.8 °C 30in /  1015.3hPa OSO 5mph /  8km/h 8.1mph /  13km/h 54% 0in /  0.0mm
21:29 63 °F /  17.2 °C 46 °F /  7.8 °C 30in /  1015.3hPa OSO 4.7mph /  7.6km/h 8.7mph /  14km/h 54% 0in /  0.0mm
21:34 63 °F /  17.2 °C 45.9 °F /  7.7 °C 30in /  1015.3hPa SO 5.1mph /  8.2km/h 9.2mph /  14.8km/h 53.6% 0in /  0.0mm
21:39 63 °F /  17.2 °C 45.7 °F /  7.6 °C 30in /  1015.3hPa OSO 5.4mph /  8.7km/h 9mph /  14.5km/h 53% 0in /  0.0mm
21:44 63.1 °F /  17.3 °C 45.7 °F /  7.6 °C 30in /  1015.3hPa OSO 5.4mph /  8.7km/h 8mph /  12.9km/h 53% 0in /  0.0mm
21:49 63 °F /  17.2 °C 45.7 °F /  7.6 °C 30in /  1015.3hPa Oeste 5.4mph /  8.7km/h 7mph /  11.3km/h 53% 0in /  0.0mm
21:54 62.8 °F /  17.1 °C 45.9 °F /  7.7 °C 30in /  1015.3hPa Oeste 5mph /  8km/h 7mph /  11.3km/h 53.8% 0in /  0.0mm
21:59 62.8 °F /  17.1 °C 45.9 °F /  7.7 °C 30in /  1015.1hPa Oeste 4.7mph /  7.6km/h 8.1mph /  13km/h 54% 0in /  0.0mm
22:04 62.6 °F /  17 °C 45.7 °F /  7.6 °C 30in /  1015.1hPa Oeste 4.7mph /  7.6km/h 8mph /  12.9km/h 54% 0in /  0.0mm
22:09 62.4 °F /  16.9 °C 45.5 °F /  7.5 °C 30in /  1015.1hPa OSO 4.7mph /  7.6km/h 7mph /  11.3km/h 54% 0in /  0.0mm
22:14 62.2 °F /  16.8 °C 45.9 °F /  7.7 °C 30in /  1015.0hPa OSO 4.7mph /  7.6km/h 10.4mph /  16.7km/h 54.8% 0in /  0.0mm
22:19 62.2 °F /  16.8 °C 45.9 °F /  7.7 °C 30in /  1015.0hPa ONO 4.7mph /  7.6km/h 10mph /  16.1km/h 55% 0in /  0.0mm
22:24 62.1 °F /  16.7 °C 45.7 °F /  7.6 °C 30in /  1015.0hPa Oeste 4.7mph /  7.6km/h 8mph /  12.9km/h 55% 0in /  0.0mm
22:29 62.1 °F /  16.7 °C 45.7 °F /  7.6 °C 30in /  1014.9hPa SO 4.7mph /  7.6km/h 7mph /  11.3km/h 55% 0in /  0.0mm
22:34 62.1 °F /  16.7 °C 45.7 °F /  7.6 °C 30in /  1014.9hPa SO 3.7mph /  6km/h 6mph /  9.7km/h 55% 0in /  0.0mm
22:39 62.1 °F /  16.7 °C 45.9 °F /  7.7 °C 30in /  1014.9hPa SSO 3.1mph /  5km/h 6mph /  9.7km/h 55.5% 0in /  0.0mm
22:44 61.3 °F /  16.3 °C 45.9 °F /  7.7 °C 30in /  1014.8hPa ESE 2.7mph /  4.3km/h 5.9mph /  9.5km/h 56.9% 0in /  0.0mm
22:49 60.6 °F /  15.9 °C 45.9 °F /  7.7 °C 30in /  1014.8hPa SE 2.4mph /  3.9km/h 7.4mph /  11.9km/h 58.2% 0in /  0.0mm
22:54 60.4 °F /  15.8 °C 46 °F /  7.8 °C 30in /  1014.8hPa SSE 3.5mph /  5.7km/h 8.5mph /  13.7km/h 59% 0in /  0.0mm
22:59 60.4 °F /  15.8 °C 45.9 °F /  7.7 °C 30in /  1014.6hPa Sur 4.3mph /  6.9km/h 10.4mph /  16.7km/h 58.5% 0in /  0.0mm
23:04 60.8 °F /  16 °C 45.9 °F /  7.7 °C 30in /  1014.6hPa SSO 5.6mph /  9km/h 10.4mph /  16.7km/h 57.8% 0in /  0.0mm
23:09 61.5 °F /  16.4 °C 45.9 °F /  7.7 °C 30in /  1014.6hPa OSO 6.4mph /  10.3km/h 11.5mph /  18.5km/h 56.5% 0in /  0.0mm
23:14 62.1 °F /  16.7 °C 45.9 °F /  7.7 °C 30in /  1014.5hPa OSO 6.4mph /  10.3km/h 14.7mph /  23.7km/h 55.1% 0in /  0.0mm
23:19 62.4 °F /  16.9 °C 45.9 °F /  7.7 °C 30in /  1014.5hPa OSO 6.4mph /  10.3km/h 16.1mph /  25.9km/h 54.6% 0in /  0.0mm
23:24 63 °F /  17.2 °C 45.9 °F /  7.7 °C 30in /  1014.5hPa OSO 7.6mph /  12.3km/h 16mph /  25.7km/h 54% 0in /  0.0mm
23:29 63 °F /  17.2 °C 45.9 °F /  7.7 °C 30in /  1014.2hPa SO 8.5mph /  13.7km/h 13mph /  20.9km/h 54% 0in /  0.0mm
23:34 62.8 °F /  17.1 °C 45.9 °F /  7.7 °C 30in /  1014.2hPa SO 7.3mph /  11.7km/h 13mph /  20.9km/h 54% 0in /  0.0mm
23:39 62.6 °F /  17 °C 45.7 °F /  7.6 °C 30in /  1014.2hPa SO 6.4mph /  10.3km/h 10mph /  16.1km/h 54% 0in /  0.0mm
23:44 62.4 °F /  16.9 °C 45.5 °F /  7.5 °C 30in /  1014.2hPa SO 6.3mph /  10.1km/h 11.8mph /  19km/h 54% 0in /  0.0mm
23:49 62.4 °F /  16.9 °C 45.7 °F /  7.6 °C 30in /  1014.2hPa SO 6.2mph /  10km/h 12mph /  19.3km/h 54.3% 0in /  0.0mm
23:54 62.2 °F /  16.8 °C 45.9 °F /  7.7 °C 30in /  1014.4hPa SSO 6.6mph /  10.6km/h 13.8mph /  22.2km/h 55% 0in /  0.0mm
23:59 62.4 °F /  16.9 °C 45.7 °F /  7.6 °C 30in /  1014.4hPa SSO 6.9mph /  11.1km/h 14mph /  22.5km/h 54.2% 0in /  0.0mm
Murcia-Puente Tocinos, Espa?a
Compliments of Weather Underground - 3.25 mb

La estación de MeteoMurcia.com, publica sus datos en los siguientes proyectos:

Weather Underground PWS IMURCIAP2 Meteoclimatic www.awekas.at

W3Counter
Web Analytics